Hillsborough, United Kingdom
Current Conditions -  °F | °C
As of 11:50 AM on Friday 28 Nov 2014 (Local Time) from EGAC Reporting Station
Rain Showers Rain Showers  
Wind Chill: 52°   Ceiling: 2400
Heat Index: 52°   Visibility: 6mi
Dew Point: 48°   Wind: 9mph
Humidity: 88%   Direction: 110°ESE
Pressure: 29.71"   Gusts: NA
Location:  54.46°N, 6.08°W
Report Text: EGAC 281150Z 11008KT 9999 VCSH FEW011 SCT017 BKN024 11/09 Q1006
Loading
Personal Weather Stations






























Interactive Weather Map New forecast layout! Learn more

10-Day Weather Forecast

Advertisements
Track Severe Weather on mobile